sensor_id;sensor_type;location;lat;lon;timestamp;P1;durP1;ratioP1;P2;durP2;ratioP2
3261;SDS011;1643;47.746;9.000;2023-04-25T00:01:56;4.50;;;2.50;;
3261;SDS011;1643;47.746;9.000;2023-04-25T00:04:22;3.33;;;2.30;;
3261;SDS011;1643;47.746;9.000;2023-04-25T00:06:48;2.80;;;2.27;;
3261;SDS011;1643;47.746;9.000;2023-04-25T00:09:13;4.17;;;2.47;;
3261;SDS011;1643;47.746;9.000;2023-04-25T00:11:40;2.90;;;1.93;;
3261;SDS011;1643;47.746;9.000;2023-04-25T00:14:05;2.60;;;2.40;;
3261;SDS011;1643;47.746;9.000;2023-04-25T00:16:31;2.70;;;2.20;;
3261;SDS011;1643;47.746;9.000;2023-04-25T00:19:00;2.80;;;1.90;;
3261;SDS011;1643;47.746;9.000;2023-04-25T00:21:28;2.30;;;2.00;;
3261;SDS011;1643;47.746;9.000;2023-04-25T00:23:54;2.93;;;1.80;;
3261;SDS011;1643;47.746;9.000;2023-04-25T00:26:20;3.33;;;2.10;;
3261;SDS011;1643;47.746;9.000;2023-04-25T00:28:46;3.00;;;1.93;;
3261;SDS011;1643;47.746;9.000;2023-04-25T00:31:12;3.47;;;1.97;;
3261;SDS011;1643;47.746;9.000;2023-04-25T00:33:38;1.93;;;1.77;;
3261;SDS011;1643;47.746;9.000;2023-04-25T00:36:04;2.73;;;1.83;;
3261;SDS011;1643;47.746;9.000;2023-04-25T00:38:30;1.80;;;1.70;;
3261;SDS011;1643;47.746;9.000;2023-04-25T00:40:56;1.60;;;1.50;;
3261;SDS011;1643;47.746;9.000;2023-04-25T00:43:23;1.63;;;1.53;;
3261;SDS011;1643;47.746;9.000;2023-04-25T00:45:52;1.90;;;1.40;;
3261;SDS011;1643;47.746;9.000;2023-04-25T00:48:18;2.73;;;1.40;;
3261;SDS011;1643;47.746;9.000;2023-04-25T00:50:48;1.40;;;1.30;;
3261;SDS011;1643;47.746;9.000;2023-04-25T00:53:20;1.77;;;1.67;;
3261;SDS011;1643;47.746;9.000;2023-04-25T00:55:47;2.50;;;1.70;;
3261;SDS011;1643;47.746;9.000;2023-04-25T00:58:15;2.43;;;1.60;;
3261;SDS011;1643;47.746;9.000;2023-04-25T01:00:45;2.10;;;1.90;;
3261;SDS011;1643;47.746;9.000;2023-04-25T01:03:12;1.50;;;1.40;;
3261;SDS011;1643;47.746;9.000;2023-04-25T01:05:40;1.97;;;1.57;;
3261;SDS011;1643;47.746;9.000;2023-04-25T01:08:06;1.90;;;1.80;;
3261;SDS011;1643;47.746;9.000;2023-04-25T01:10:32;4.33;;;2.30;;
3261;SDS011;1643;47.746;9.000;2023-04-25T01:12:58;2.00;;;1.63;;
3261;SDS011;1643;47.746;9.000;2023-04-25T01:15:23;3.70;;;2.20;;
3261;SDS011;1643;47.746;9.000;2023-04-25T01:17:49;1.70;;;1.60;;
3261;SDS011;1643;47.746;9.000;2023-04-25T01:20:15;2.33;;;1.67;;
3261;SDS011;1643;47.746;9.000;2023-04-25T01:22:41;2.70;;;2.00;;
3261;SDS011;1643;47.746;9.000;2023-04-25T01:25:07;2.10;;;1.90;;
3261;SDS011;1643;47.746;9.000;2023-04-25T01:27:35;2.00;;;1.83;;
3261;SDS011;1643;47.746;9.000;2023-04-25T01:30:01;2.20;;;2.03;;
3261;SDS011;1643;47.746;9.000;2023-04-25T01:32:28;2.53;;;1.80;;
3261;SDS011;1643;47.746;9.000;2023-04-25T01:34:56;3.73;;;1.83;;
3261;SDS011;1643;47.746;9.000;2023-04-25T01:37:22;2.30;;;1.90;;
3261;SDS011;1643;47.746;9.000;2023-04-25T01:39:48;2.50;;;1.90;;
3261;SDS011;1643;47.746;9.000;2023-04-25T01:42:15;2.80;;;1.63;;
3261;SDS011;1643;47.746;9.000;2023-04-25T01:44:41;3.00;;;1.80;;
3261;SDS011;1643;47.746;9.000;2023-04-25T01:47:07;2.13;;;1.67;;
3261;SDS011;1643;47.746;9.000;2023-04-25T01:49:32;1.60;;;1.50;;
3261;SDS011;1643;47.746;9.000;2023-04-25T01:51:58;2.00;;;1.80;;
3261;SDS011;1643;47.746;9.000;2023-04-25T01:54:24;2.40;;;1.97;;
3261;SDS011;1643;47.746;9.000;2023-04-25T01:56:50;2.80;;;1.70;;
3261;SDS011;1643;47.746;9.000;2023-04-25T01:59:16;1.93;;;1.83;;
3261;SDS011;1643;47.746;9.000;2023-04-25T02:01:43;4.23;;;2.30;;
3261;SDS011;1643;47.746;9.000;2023-04-25T02:04:08;2.83;;;1.70;;
3261;SDS011;1643;47.746;9.000;2023-04-25T02:06:34;1.87;;;1.77;;
3261;SDS011;1643;47.746;9.000;2023-04-25T02:08:59;2.17;;;1.97;;
3261;SDS011;1643;47.746;9.000;2023-04-25T02:11:25;2.13;;;1.93;;
3261;SDS011;1643;47.746;9.000;2023-04-25T02:13:51;5.27;;;1.87;;
3261;SDS011;1643;47.746;9.000;2023-04-25T02:16:16;3.30;;;1.73;;
3261;SDS011;1643;47.746;9.000;2023-04-25T02:18:42;1.73;;;1.63;;
3261;SDS011;1643;47.746;9.000;2023-04-25T02:21:09;2.33;;;1.90;;
3261;SDS011;1643;47.746;9.000;2023-04-25T02:23:36;2.43;;;1.70;;
3261;SDS011;1643;47.746;9.000;2023-04-25T02:26:02;2.27;;;2.07;;
3261;SDS011;1643;47.746;9.000;2023-04-25T02:28:27;4.77;;;1.80;;
3261;SDS011;1643;47.746;9.000;2023-04-25T02:30:53;3.70;;;2.30;;
3261;SDS011;1643;47.746;9.000;2023-04-25T02:33:19;2.80;;;2.10;;
3261;SDS011;1643;47.746;9.000;2023-04-25T02:35:45;2.00;;;1.80;;
3261;SDS011;1643;47.746;9.000;2023-04-25T02:38:11;2.20;;;2.00;;
3261;SDS011;1643;47.746;9.000;2023-04-25T02:40:37;2.87;;;2.30;;
3261;SDS011;1643;47.746;9.000;2023-04-25T02:43:02;2.40;;;1.97;;
3261;SDS011;1643;47.746;9.000;2023-04-25T02:45:28;3.03;;;1.80;;
3261;SDS011;1643;47.746;9.000;2023-04-25T02:47:54;2.57;;;2.17;;
3261;SDS011;1643;47.746;9.000;2023-04-25T02:50:19;1.87;;;1.77;;
3261;SDS011;1643;47.746;9.000;2023-04-25T02:52:45;3.43;;;2.10;;
3261;SDS011;1643;47.746;9.000;2023-04-25T02:55:12;2.20;;;1.57;;
3261;SDS011;1643;47.746;9.000;2023-04-25T02:57:38;2.10;;;1.90;;
3261;SDS011;1643;47.746;9.000;2023-04-25T03:00:04;2.30;;;1.70;;
3261;SDS011;1643;47.746;9.000;2023-04-25T03:02:30;2.13;;;1.93;;
3261;SDS011;1643;47.746;9.000;2023-04-25T03:04:56;3.20;;;2.00;;
3261;SDS011;1643;47.746;9.000;2023-04-25T03:07:21;3.33;;;2.10;;
3261;SDS011;1643;47.746;9.000;2023-04-25T03:09:47;3.37;;;1.97;;
3261;SDS011;1643;47.746;9.000;2023-04-25T03:12:12;2.60;;;2.40;;
3261;SDS011;1643;47.746;9.000;2023-04-25T03:14:38;3.13;;;2.17;;
3261;SDS011;1643;47.746;9.000;2023-04-25T03:17:04;1.70;;;1.60;;
3261;SDS011;1643;47.746;9.000;2023-04-25T03:19:29;2.37;;;2.00;;
3261;SDS011;1643;47.746;9.000;2023-04-25T03:21:55;3.17;;;2.17;;
3261;SDS011;1643;47.746;9.000;2023-04-25T03:24:21;2.10;;;1.77;;
3261;SDS011;1643;47.746;9.000;2023-04-25T03:26:46;2.60;;;2.37;;
3261;SDS011;1643;47.746;9.000;2023-04-25T03:29:12;1.93;;;1.83;;
3261;SDS011;1643;47.746;9.000;2023-04-25T03:31:38;2.67;;;2.43;;
3261;SDS011;1643;47.746;9.000;2023-04-25T03:34:03;3.30;;;3.00;;
3261;SDS011;1643;47.746;9.000;2023-04-25T03:36:29;3.23;;;2.53;;
3261;SDS011;1643;47.746;9.000;2023-04-25T03:38:55;2.60;;;2.20;;
3261;SDS011;1643;47.746;9.000;2023-04-25T03:41:21;2.13;;;2.03;;
3261;SDS011;1643;47.746;9.000;2023-04-25T03:43:46;4.60;;;2.07;;
3261;SDS011;1643;47.746;9.000;2023-04-25T03:46:12;2.40;;;1.87;;
3261;SDS011;1643;47.746;9.000;2023-04-25T03:48:37;6.33;;;2.00;;
3261;SDS011;1643;47.746;9.000;2023-04-25T03:51:03;1.93;;;1.83;;
3261;SDS011;1643;47.746;9.000;2023-04-25T03:53:29;2.17;;;1.97;;
3261;SDS011;1643;47.746;9.000;2023-04-25T03:55:54;2.40;;;2.20;;
3261;SDS011;1643;47.746;9.000;2023-04-25T03:58:20;2.00;;;1.90;;
3261;SDS011;1643;47.746;9.000;2023-04-25T04:00:47;5.23;;;2.10;;
3261;SDS011;1643;47.746;9.000;2023-04-25T04:03:13;5.20;;;2.00;;
3261;SDS011;1643;47.746;9.000;2023-04-25T04:05:39;1.80;;;1.70;;
3261;SDS011;1643;47.746;9.000;2023-04-25T04:08:05;2.00;;;1.90;;
3261;SDS011;1643;47.746;9.000;2023-04-25T04:10:31;2.10;;;1.90;;
3261;SDS011;1643;47.746;9.000;2023-04-25T04:12:57;2.77;;;2.27;;
3261;SDS011;1643;47.746;9.000;2023-04-25T04:15:22;2.33;;;2.00;;
3261;SDS011;1643;47.746;9.000;2023-04-25T04:17:48;3.30;;;2.20;;
3261;SDS011;1643;47.746;9.000;2023-04-25T04:20:14;3.23;;;2.33;;
3261;SDS011;1643;47.746;9.000;2023-04-25T04:22:39;2.77;;;2.20;;
3261;SDS011;1643;47.746;9.000;2023-04-25T04:25:05;2.03;;;1.90;;
3261;SDS011;1643;47.746;9.000;2023-04-25T04:27:31;1.70;;;1.60;;
3261;SDS011;1643;47.746;9.000;2023-04-25T04:29:57;3.80;;;2.80;;
3261;SDS011;1643;47.746;9.000;2023-04-25T04:32:22;3.97;;;2.00;;
3261;SDS011;1643;47.746;9.000;2023-04-25T04:34:49;2.03;;;1.83;;
3261;SDS011;1643;47.746;9.000;2023-04-25T04:37:14;2.23;;;2.10;;
3261;SDS011;1643;47.746;9.000;2023-04-25T04:39:40;3.20;;;2.53;;
3261;SDS011;1643;47.746;9.000;2023-04-25T04:42:06;2.40;;;2.20;;
3261;SDS011;1643;47.746;9.000;2023-04-25T04:44:32;3.23;;;2.67;;
3261;SDS011;1643;47.746;9.000;2023-04-25T04:46:58;2.87;;;2.30;;
3261;SDS011;1643;47.746;9.000;2023-04-25T04:49:24;2.63;;;2.37;;
3261;SDS011;1643;47.746;9.000;2023-04-25T04:51:49;2.70;;;2.37;;
3261;SDS011;1643;47.746;9.000;2023-04-25T04:54:15;2.33;;;2.13;;
3261;SDS011;1643;47.746;9.000;2023-04-25T04:56:41;2.80;;;2.60;;
3261;SDS011;1643;47.746;9.000;2023-04-25T04:59:07;3.63;;;2.60;;
3261;SDS011;1643;47.746;9.000;2023-04-25T05:01:32;3.50;;;2.67;;
3261;SDS011;1643;47.746;9.000;2023-04-25T05:04:01;2.70;;;2.40;;
3261;SDS011;1643;47.746;9.000;2023-04-25T05:06:27;2.80;;;2.50;;
3261;SDS011;1643;47.746;9.000;2023-04-25T05:08:56;8.53;;;2.60;;
3261;SDS011;1643;47.746;9.000;2023-04-25T05:11:23;6.40;;;2.70;;
3261;SDS011;1643;47.746;9.000;2023-04-25T05:13:51;3.87;;;2.60;;
3261;SDS011;1643;47.746;9.000;2023-04-25T05:16:17;3.07;;;2.77;;
3261;SDS011;1643;47.746;9.000;2023-04-25T05:18:42;3.10;;;2.80;;
3261;SDS011;1643;47.746;9.000;2023-04-25T05:21:08;2.70;;;2.10;;
3261;SDS011;1643;47.746;9.000;2023-04-25T05:23:34;3.70;;;2.73;;
3261;SDS011;1643;47.746;9.000;2023-04-25T05:25:59;2.87;;;2.37;;
3261;SDS011;1643;47.746;9.000;2023-04-25T05:28:25;2.97;;;2.50;;
3261;SDS011;1643;47.746;9.000;2023-04-25T05:30:51;2.77;;;2.57;;
3261;SDS011;1643;47.746;9.000;2023-04-25T05:33:17;3.40;;;3.10;;
3261;SDS011;1643;47.746;9.000;2023-04-25T05:35:43;2.50;;;2.20;;
3261;SDS011;1643;47.746;9.000;2023-04-25T05:38:09;3.43;;;3.13;;
3261;SDS011;1643;47.746;9.000;2023-04-25T05:40:35;4.13;;;3.73;;
3261;SDS011;1643;47.746;9.000;2023-04-25T05:43:00;19.50;;;10.33;;
3261;SDS011;1643;47.746;9.000;2023-04-25T05:45:26;31.00;;;15.73;;
3261;SDS011;1643;47.746;9.000;2023-04-25T05:47:52;26.13;;;14.50;;
3261;SDS011;1643;47.746;9.000;2023-04-25T05:50:17;22.30;;;12.60;;
3261;SDS011;1643;47.746;9.000;2023-04-25T05:52:43;19.07;;;10.57;;
3261;SDS011;1643;47.746;9.000;2023-04-25T05:55:09;15.63;;;6.83;;
3261;SDS011;1643;47.746;9.000;2023-04-25T05:57:34;6.57;;;5.30;;
3261;SDS011;1643;47.746;9.000;2023-04-25T06:00:00;4.47;;;3.73;;
3261;SDS011;1643;47.746;9.000;2023-04-25T06:02:26;3.60;;;3.17;;
3261;SDS011;1643;47.746;9.000;2023-04-25T06:04:52;4.63;;;3.07;;
3261;SDS011;1643;47.746;9.000;2023-04-25T06:07:18;3.03;;;2.73;;
3261;SDS011;1643;47.746;9.000;2023-04-25T06:09:44;2.57;;;2.37;;
3261;SDS011;1643;47.746;9.000;2023-04-25T06:12:10;3.63;;;3.03;;
3261;SDS011;1643;47.746;9.000;2023-04-25T06:14:36;4.20;;;3.00;;
3261;SDS011;1643;47.746;9.000;2023-04-25T06:17:02;4.43;;;4.03;;
3261;SDS011;1643;47.746;9.000;2023-04-25T06:19:37;4.23;;;3.83;;
3261;SDS011;1643;47.746;9.000;2023-04-25T06:22:03;8.47;;;6.40;;
3261;SDS011;1643;47.746;9.000;2023-04-25T06:24:28;9.30;;;6.63;;
3261;SDS011;1643;47.746;9.000;2023-04-25T06:26:54;6.53;;;4.43;;
3261;SDS011;1643;47.746;9.000;2023-04-25T06:29:20;4.67;;;3.33;;
3261;SDS011;1643;47.746;9.000;2023-04-25T06:31:45;4.27;;;3.23;;
3261;SDS011;1643;47.746;9.000;2023-04-25T06:34:11;6.50;;;3.70;;
3261;SDS011;1643;47.746;9.000;2023-04-25T06:36:37;4.77;;;3.50;;
3261;SDS011;1643;47.746;9.000;2023-04-25T06:39:03;5.80;;;3.27;;
3261;SDS011;1643;47.746;9.000;2023-04-25T06:41:28;4.27;;;3.00;;
3261;SDS011;1643;47.746;9.000;2023-04-25T06:43:54;4.90;;;2.43;;
3261;SDS011;1643;47.746;9.000;2023-04-25T06:46:19;4.97;;;2.50;;
3261;SDS011;1643;47.746;9.000;2023-04-25T06:48:45;2.40;;;2.20;;
3261;SDS011;1643;47.746;9.000;2023-04-25T06:51:11;6.63;;;2.60;;
3261;SDS011;1643;47.746;9.000;2023-04-25T06:53:38;3.47;;;2.50;;
3261;SDS011;1643;47.746;9.000;2023-04-25T06:56:04;2.70;;;2.27;;
3261;SDS011;1643;47.746;9.000;2023-04-25T06:58:30;2.97;;;2.70;;
3261;SDS011;1643;47.746;9.000;2023-04-25T07:00:55;2.93;;;2.60;;
3261;SDS011;1643;47.746;9.000;2023-04-25T07:03:21;3.87;;;2.63;;
3261;SDS011;1643;47.746;9.000;2023-04-25T07:05:47;4.50;;;2.53;;
3261;SDS011;1643;47.746;9.000;2023-04-25T07:08:12;4.53;;;2.90;;
3261;SDS011;1643;47.746;9.000;2023-04-25T07:10:38;5.10;;;2.33;;
3261;SDS011;1643;47.746;9.000;2023-04-25T07:13:03;5.90;;;2.57;;
3261;SDS011;1643;47.746;9.000;2023-04-25T07:15:29;3.70;;;3.10;;
3261;SDS011;1643;47.746;9.000;2023-04-25T07:17:55;10.47;;;4.50;;
3261;SDS011;1643;47.746;9.000;2023-04-25T07:20:20;3.90;;;3.23;;
3261;SDS011;1643;47.746;9.000;2023-04-25T07:22:46;3.50;;;2.57;;
3261;SDS011;1643;47.746;9.000;2023-04-25T07:25:12;2.87;;;2.67;;
3261;SDS011;1643;47.746;9.000;2023-04-25T07:27:38;4.03;;;2.07;;
3261;SDS011;1643;47.746;9.000;2023-04-25T07:30:04;2.77;;;2.57;;
3261;SDS011;1643;47.746;9.000;2023-04-25T07:32:31;3.93;;;2.60;;
3261;SDS011;1643;47.746;9.000;2023-04-25T07:34:57;3.53;;;2.50;;
3261;SDS011;1643;47.746;9.000;2023-04-25T07:37:23;6.40;;;3.07;;
3261;SDS011;1643;47.746;9.000;2023-04-25T07:39:51;2.40;;;2.20;;
3261;SDS011;1643;47.746;9.000;2023-04-25T07:42:17;3.20;;;2.60;;
3261;SDS011;1643;47.746;9.000;2023-04-25T07:44:43;2.60;;;2.40;;
3261;SDS011;1643;47.746;9.000;2023-04-25T07:47:09;2.17;;;1.77;;
3261;SDS011;1643;47.746;9.000;2023-04-25T07:49:35;3.60;;;1.90;;
3261;SDS011;1643;47.746;9.000;2023-04-25T07:52:02;1.70;;;1.60;;
3261;SDS011;1643;47.746;9.000;2023-04-25T07:54:28;2.20;;;1.87;;
3261;SDS011;1643;47.746;9.000;2023-04-25T07:56:54;1.80;;;1.70;;
3261;SDS011;1643;47.746;9.000;2023-04-25T07:59:20;1.23;;;1.20;;
3261;SDS011;1643;47.746;9.000;2023-04-25T08:01:47;2.20;;;1.30;;
3261;SDS011;1643;47.746;9.000;2023-04-25T08:04:13;1.60;;;1.50;;
3261;SDS011;1643;47.746;9.000;2023-04-25T08:06:39;2.13;;;1.40;;
3261;SDS011;1643;47.746;9.000;2023-04-25T08:09:08;2.03;;;1.20;;
3261;SDS011;1643;47.746;9.000;2023-04-25T08:11:34;1.60;;;1.50;;
3261;SDS011;1643;47.746;9.000;2023-04-25T08:14:00;1.63;;;1.40;;
3261;SDS011;1643;47.746;9.000;2023-04-25T08:16:27;1.50;;;1.40;;
3261;SDS011;1643;47.746;9.000;2023-04-25T08:18:53;1.50;;;1.40;;
3261;SDS011;1643;47.746;9.000;2023-04-25T08:21:19;1.20;;;1.10;;
3261;SDS011;1643;47.746;9.000;2023-04-25T08:23:45;1.47;;;1.20;;
3261;SDS011;1643;47.746;9.000;2023-04-25T08:26:11;2.93;;;1.50;;
3261;SDS011;1643;47.746;9.000;2023-04-25T08:28:37;1.50;;;1.40;;
3261;SDS011;1643;47.746;9.000;2023-04-25T08:31:03;2.20;;;2.03;;
3261;SDS011;1643;47.746;9.000;2023-04-25T08:33:29;1.63;;;1.40;;
3261;SDS011;1643;47.746;9.000;2023-04-25T08:35:57;7.93;;;1.80;;
3261;SDS011;1643;47.746;9.000;2023-04-25T08:38:22;1.90;;;1.80;;
3261;SDS011;1643;47.746;9.000;2023-04-25T08:40:51;3.00;;;1.73;;
3261;SDS011;1643;47.746;9.000;2023-04-25T08:43:17;2.30;;;2.10;;
3261;SDS011;1643;47.746;9.000;2023-04-25T08:45:44;2.47;;;2.20;;
3261;SDS011;1643;47.746;9.000;2023-04-25T08:48:12;2.70;;;2.40;;
3261;SDS011;1643;47.746;9.000;2023-04-25T08:50:52;2.50;;;2.30;;
3261;SDS011;1643;47.746;9.000;2023-04-25T08:53:21;2.67;;;2.43;;
3261;SDS011;1643;47.746;9.000;2023-04-25T08:55:50;7.90;;;2.90;;
3261;SDS011;1643;47.746;9.000;2023-04-25T08:58:21;2.30;;;2.10;;
3261;SDS011;1643;47.746;9.000;2023-04-25T09:00:48;5.67;;;2.50;;
3261;SDS011;1643;47.746;9.000;2023-04-25T09:03:14;4.27;;;2.97;;
3261;SDS011;1643;47.746;9.000;2023-04-25T09:05:41;4.13;;;3.20;;
3261;SDS011;1643;47.746;9.000;2023-04-25T09:08:07;3.33;;;3.03;;
3261;SDS011;1643;47.746;9.000;2023-04-25T09:10:33;3.50;;;3.00;;
3261;SDS011;1643;47.746;9.000;2023-04-25T09:15:51;6.50;;;2.80;;
3261;SDS011;1643;47.746;9.000;2023-04-25T09:18:25;2.80;;;2.60;;
3261;SDS011;1643;47.746;9.000;2023-04-25T09:20:56;3.27;;;2.90;;
3261;SDS011;1643;47.746;9.000;2023-04-25T09:23:23;7.70;;;2.90;;
3261;SDS011;1643;47.746;9.000;2023-04-25T09:25:50;3.83;;;2.60;;
3261;SDS011;1643;47.746;9.000;2023-04-25T09:28:22;2.90;;;2.20;;
3261;SDS011;1643;47.746;9.000;2023-04-25T09:30:53;2.50;;;2.30;;
3261;SDS011;1643;47.746;9.000;2023-04-25T09:33:22;4.10;;;2.83;;
3261;SDS011;1643;47.746;9.000;2023-04-25T09:35:53;8.33;;;5.07;;
3261;SDS011;1643;47.746;9.000;2023-04-25T09:38:25;3.33;;;2.83;;
3261;SDS011;1643;47.746;9.000;2023-04-25T09:40:51;3.70;;;2.27;;
3261;SDS011;1643;47.746;9.000;2023-04-25T09:45:46;2.00;;;1.80;;
3261;SDS011;1643;47.746;9.000;2023-04-25T09:50:45;2.77;;;1.83;;
3261;SDS011;1643;47.746;9.000;2023-04-25T09:53:28;1.87;;;1.70;;
3261;SDS011;1643;47.746;9.000;2023-04-25T09:55:55;2.20;;;2.00;;
3261;SDS011;1643;47.746;9.000;2023-04-25T09:58:24;3.37;;;1.80;;
3261;SDS011;1643;47.746;9.000;2023-04-25T10:00:51;1.67;;;1.23;;
3261;SDS011;1643;47.746;9.000;2023-04-25T10:03:17;2.50;;;2.30;;
3261;SDS011;1643;47.746;9.000;2023-04-25T10:05:43;1.50;;;1.40;;
3261;SDS011;1643;47.746;9.000;2023-04-25T10:08:09;1.53;;;1.43;;
3261;SDS011;1643;47.746;9.000;2023-04-25T10:10:36;1.70;;;1.57;;
3261;SDS011;1643;47.746;9.000;2023-04-25T10:13:04;1.37;;;1.27;;
3261;SDS011;1643;47.746;9.000;2023-04-25T10:15:32;1.40;;;1.30;;
3261;SDS011;1643;47.746;9.000;2023-04-25T10:18:00;3.17;;;1.53;;
3261;SDS011;1643;47.746;9.000;2023-04-25T10:20:26;1.93;;;1.67;;
3261;SDS011;1643;47.746;9.000;2023-04-25T10:22:52;1.30;;;1.20;;
3261;SDS011;1643;47.746;9.000;2023-04-25T10:25:21;1.30;;;1.20;;
3261;SDS011;1643;47.746;9.000;2023-04-25T10:27:49;7.73;;;2.70;;
3261;SDS011;1643;47.746;9.000;2023-04-25T10:30:16;5.90;;;3.50;;
3261;SDS011;1643;47.746;9.000;2023-04-25T10:32:44;12.23;;;7.00;;
3261;SDS011;1643;47.746;9.000;2023-04-25T10:35:16;20.03;;;10.00;;
3261;SDS011;1643;47.746;9.000;2023-04-25T10:37:56;16.50;;;9.00;;
3261;SDS011;1643;47.746;9.000;2023-04-25T10:40:23;15.60;;;8.80;;
3261;SDS011;1643;47.746;9.000;2023-04-25T10:42:48;8.73;;;6.00;;
3261;SDS011;1643;47.746;9.000;2023-04-25T10:45:16;10.13;;;6.60;;
3261;SDS011;1643;47.746;9.000;2023-04-25T10:47:45;4.17;;;2.70;;
3261;SDS011;1643;47.746;9.000;2023-04-25T10:50:11;5.80;;;3.57;;
3261;SDS011;1643;47.746;9.000;2023-04-25T10:52:40;5.10;;;3.30;;
3261;SDS011;1643;47.746;9.000;2023-04-25T10:55:05;2.27;;;2.07;;
3261;SDS011;1643;47.746;9.000;2023-04-25T11:00:14;1.30;;;1.20;;
3261;SDS011;1643;47.746;9.000;2023-04-25T11:02:57;0.80;;;0.80;;
3261;SDS011;1643;47.746;9.000;2023-04-25T11:05:31;0.90;;;0.90;;
3261;SDS011;1643;47.746;9.000;2023-04-25T11:07:58;0.70;;;0.70;;
3261;SDS011;1643;47.746;9.000;2023-04-25T11:10:28;2.27;;;0.90;;
3261;SDS011;1643;47.746;9.000;2023-04-25T11:12:55;0.90;;;0.90;;
3261;SDS011;1643;47.746;9.000;2023-04-25T11:15:21;0.80;;;0.80;;
3261;SDS011;1643;47.746;9.000;2023-04-25T11:17:47;0.83;;;0.83;;
3261;SDS011;1643;47.746;9.000;2023-04-25T11:20:13;0.70;;;0.70;;
3261;SDS011;1643;47.746;9.000;2023-04-25T11:22:40;0.70;;;0.70;;
3261;SDS011;1643;47.746;9.000;2023-04-25T11:25:10;0.80;;;0.80;;
3261;SDS011;1643;47.746;9.000;2023-04-25T11:27:38;0.70;;;0.70;;
3261;SDS011;1643;47.746;9.000;2023-04-25T11:30:14;0.70;;;0.70;;
3261;SDS011;1643;47.746;9.000;2023-04-25T11:32:41;0.80;;;0.60;;
3261;SDS011;1643;47.746;9.000;2023-04-25T11:35:08;0.80;;;0.70;;
3261;SDS011;1643;47.746;9.000;2023-04-25T11:37:34;0.60;;;0.60;;
3261;SDS011;1643;47.746;9.000;2023-04-25T11:40:00;0.93;;;0.73;;
3261;SDS011;1643;47.746;9.000;2023-04-25T11:42:27;0.63;;;0.63;;
3261;SDS011;1643;47.746;9.000;2023-04-25T11:44:52;0.70;;;0.70;;
3261;SDS011;1643;47.746;9.000;2023-04-25T11:47:18;0.63;;;0.63;;
3261;SDS011;1643;47.746;9.000;2023-04-25T11:49:43;0.73;;;0.73;;
3261;SDS011;1643;47.746;9.000;2023-04-25T11:52:09;1.77;;;0.60;;
3261;SDS011;1643;47.746;9.000;2023-04-25T11:54:35;0.60;;;0.60;;
3261;SDS011;1643;47.746;9.000;2023-04-25T11:57:02;0.60;;;0.60;;
3261;SDS011;1643;47.746;9.000;2023-04-25T11:59:28;0.70;;;0.70;;
3261;SDS011;1643;47.746;9.000;2023-04-25T12:01:54;0.60;;;0.60;;
3261;SDS011;1643;47.746;9.000;2023-04-25T12:04:23;1.23;;;0.70;;
3261;SDS011;1643;47.746;9.000;2023-04-25T12:06:50;0.90;;;0.60;;
3261;SDS011;1643;47.746;9.000;2023-04-25T12:09:38;0.70;;;0.70;;
3261;SDS011;1643;47.746;9.000;2023-04-25T12:12:04;0.70;;;0.70;;
3261;SDS011;1643;47.746;9.000;2023-04-25T12:14:31;0.63;;;0.63;;
3261;SDS011;1643;47.746;9.000;2023-04-25T12:17:00;0.60;;;0.60;;
3261;SDS011;1643;47.746;9.000;2023-04-25T12:19:34;0.93;;;0.60;;
3261;SDS011;1643;47.746;9.000;2023-04-25T12:22:01;1.03;;;0.87;;
3261;SDS011;1643;47.746;9.000;2023-04-25T12:24:28;0.63;;;0.63;;
3261;SDS011;1643;47.746;9.000;2023-04-25T12:27:04;0.73;;;0.73;;
3261;SDS011;1643;47.746;9.000;2023-04-25T12:29:31;1.10;;;0.80;;
3261;SDS011;1643;47.746;9.000;2023-04-25T12:31:58;0.70;;;0.70;;
3261;SDS011;1643;47.746;9.000;2023-04-25T12:34:27;1.47;;;0.73;;
3261;SDS011;1643;47.746;9.000;2023-04-25T12:36:53;0.77;;;0.77;;
3261;SDS011;1643;47.746;9.000;2023-04-25T12:39:20;1.10;;;1.00;;
3261;SDS011;1643;47.746;9.000;2023-04-25T12:41:47;1.13;;;0.83;;
3261;SDS011;1643;47.746;9.000;2023-04-25T12:44:13;0.90;;;0.80;;
3261;SDS011;1643;47.746;9.000;2023-04-25T12:46:39;0.80;;;0.80;;
3261;SDS011;1643;47.746;9.000;2023-04-25T12:49:06;0.90;;;0.90;;
3261;SDS011;1643;47.746;9.000;2023-04-25T12:51:33;2.27;;;1.10;;
3261;SDS011;1643;47.746;9.000;2023-04-25T12:54:00;1.20;;;1.10;;
3261;SDS011;1643;47.746;9.000;2023-04-25T12:56:26;1.67;;;1.10;;
3261;SDS011;1643;47.746;9.000;2023-04-25T12:58:53;1.13;;;1.00;;
3261;SDS011;1643;47.746;9.000;2023-04-25T13:01:19;1.00;;;1.00;;
3261;SDS011;1643;47.746;9.000;2023-04-25T13:03:48;1.00;;;1.00;;
3261;SDS011;1643;47.746;9.000;2023-04-25T13:06:14;1.67;;;1.03;;
3261;SDS011;1643;47.746;9.000;2023-04-25T13:08:40;1.23;;;1.10;;
3261;SDS011;1643;47.746;9.000;2023-04-25T13:11:06;1.20;;;1.20;;
3261;SDS011;1643;47.746;9.000;2023-04-25T13:13:32;1.10;;;1.00;;
3261;SDS011;1643;47.746;9.000;2023-04-25T13:15:59;1.00;;;1.00;;
3261;SDS011;1643;47.746;9.000;2023-04-25T13:18:27;1.67;;;0.90;;
3261;SDS011;1643;47.746;9.000;2023-04-25T13:20:53;2.13;;;1.00;;
3261;SDS011;1643;47.746;9.000;2023-04-25T13:23:19;1.90;;;1.10;;
3261;SDS011;1643;47.746;9.000;2023-04-25T13:25:45;1.17;;;0.80;;
3261;SDS011;1643;47.746;9.000;2023-04-25T13:28:11;1.20;;;1.03;;
3261;SDS011;1643;47.746;9.000;2023-04-25T13:30:37;1.33;;;1.00;;
3261;SDS011;1643;47.746;9.000;2023-04-25T13:33:03;2.60;;;1.03;;
3261;SDS011;1643;47.746;9.000;2023-04-25T13:35:29;1.33;;;1.20;;
3261;SDS011;1643;47.746;9.000;2023-04-25T13:37:55;1.27;;;1.10;;
3261;SDS011;1643;47.746;9.000;2023-04-25T13:40:21;1.30;;;1.20;;
3261;SDS011;1643;47.746;9.000;2023-04-25T13:42:47;1.50;;;1.40;;
3261;SDS011;1643;47.746;9.000;2023-04-25T13:45:13;1.20;;;1.10;;
3261;SDS011;1643;47.746;9.000;2023-04-25T13:47:38;1.90;;;1.37;;
3261;SDS011;1643;47.746;9.000;2023-04-25T13:50:04;1.50;;;1.20;;
3261;SDS011;1643;47.746;9.000;2023-04-25T13:52:31;1.30;;;1.20;;
3261;SDS011;1643;47.746;9.000;2023-04-25T13:54:57;1.50;;;1.20;;
3261;SDS011;1643;47.746;9.000;2023-04-25T13:57:23;1.27;;;1.17;;
3261;SDS011;1643;47.746;9.000;2023-04-25T13:59:48;1.23;;;1.13;;
3261;SDS011;1643;47.746;9.000;2023-04-25T14:02:15;3.03;;;1.20;;
3261;SDS011;1643;47.746;9.000;2023-04-25T14:04:40;2.50;;;1.40;;
3261;SDS011;1643;47.746;9.000;2023-04-25T14:07:06;5.40;;;1.20;;
3261;SDS011;1643;47.746;9.000;2023-04-25T14:09:32;1.33;;;1.23;;
3261;SDS011;1643;47.746;9.000;2023-04-25T14:11:57;1.33;;;1.23;;
3261;SDS011;1643;47.746;9.000;2023-04-25T14:14:23;1.30;;;1.20;;
3261;SDS011;1643;47.746;9.000;2023-04-25T14:16:49;2.30;;;1.27;;
3261;SDS011;1643;47.746;9.000;2023-04-25T14:19:18;1.70;;;1.30;;
3261;SDS011;1643;47.746;9.000;2023-04-25T14:21:44;1.57;;;1.47;;
3261;SDS011;1643;47.746;9.000;2023-04-25T14:24:11;2.87;;;1.63;;
3261;SDS011;1643;47.746;9.000;2023-04-25T14:26:37;5.20;;;1.70;;
3261;SDS011;1643;47.746;9.000;2023-04-25T14:29:03;1.37;;;1.27;;
3261;SDS011;1643;47.746;9.000;2023-04-25T14:31:30;1.50;;;1.40;;
3261;SDS011;1643;47.746;9.000;2023-04-25T14:33:56;1.60;;;1.50;;
3261;SDS011;1643;47.746;9.000;2023-04-25T14:36:22;1.77;;;1.67;;
3261;SDS011;1643;47.746;9.000;2023-04-25T14:38:47;1.90;;;1.43;;
3261;SDS011;1643;47.746;9.000;2023-04-25T14:41:13;1.50;;;1.40;;
3261;SDS011;1643;47.746;9.000;2023-04-25T14:43:39;1.83;;;1.30;;
3261;SDS011;1643;47.746;9.000;2023-04-25T14:46:05;1.30;;;1.20;;
3261;SDS011;1643;47.746;9.000;2023-04-25T14:48:31;1.50;;;1.20;;
3261;SDS011;1643;47.746;9.000;2023-04-25T14:50:57;1.40;;;1.30;;
3261;SDS011;1643;47.746;9.000;2023-04-25T14:53:25;1.13;;;1.07;;
3261;SDS011;1643;47.746;9.000;2023-04-25T14:55:50;1.63;;;1.33;;
3261;SDS011;1643;47.746;9.000;2023-04-25T14:58:16;1.50;;;1.30;;
3261;SDS011;1643;47.746;9.000;2023-04-25T15:00:42;1.30;;;1.20;;
3261;SDS011;1643;47.746;9.000;2023-04-25T15:03:09;1.57;;;1.00;;
3261;SDS011;1643;47.746;9.000;2023-04-25T15:05:36;3.70;;;1.37;;
3261;SDS011;1643;47.746;9.000;2023-04-25T15:08:02;0.97;;;0.97;;
3261;SDS011;1643;47.746;9.000;2023-04-25T15:10:28;2.53;;;1.10;;
3261;SDS011;1643;47.746;9.000;2023-04-25T15:12:54;1.87;;;1.07;;
3261;SDS011;1643;47.746;9.000;2023-04-25T15:15:20;1.10;;;1.10;;
3261;SDS011;1643;47.746;9.000;2023-04-25T15:17:46;0.97;;;0.97;;
3261;SDS011;1643;47.746;9.000;2023-04-25T15:20:12;1.00;;;1.00;;
3261;SDS011;1643;47.746;9.000;2023-04-25T15:22:38;1.67;;;1.10;;